Time;durP1;ratioP1;P1;durP2;ratioP2;P2;SDS_P1;SDS_P2;PMS_P1;PMS_P2;Temp;Humidity;BMP_temperature;BMP_pressure;BME280_temperature;BME280_humidity;BME280_pressure;Samples;Min_cycle;Max_cycle;Signal;HPM_P1;HPM_P2
2022/10/31 00:01:34;;;;;;;11.02;4.30;;;13.70;99.90;;;;;;5082771;28;20480;-79
2022/10/31 00:04:00;;;;;;;10.93;4.07;;;13.60;99.90;;;;;;5089833;28;20028;-80
2022/10/31 00:06:26;;;;;;;8.63;3.97;;;13.60;99.90;;;;;;5093973;28;20089;-79
2022/10/31 00:08:54;;;;;;;9.13;3.80;;;13.70;99.90;;;;;;5094467;28;20485;-80
2022/10/31 00:11:20;;;;;;;10.45;3.60;;;13.60;99.90;;;;;;5083702;28;20496;-80
2022/10/31 00:13:45;;;;;;;7.78;3.47;;;13.60;99.90;;;;;;5088253;28;20063;-83
2022/10/31 00:16:21;;;;;;;8.57;3.35;;;13.60;99.90;;;;;;5094528;28;20047;-80
2022/10/31 00:18:50;;;;;;;10.07;3.92;;;13.50;99.90;;;;;;5094275;28;20107;-79
2022/10/31 00:21:16;;;;;;;7.15;3.53;;;13.60;99.90;;;;;;5094373;28;20181;-82
2022/10/31 00:23:42;;;;;;;4.93;3.35;;;13.50;99.90;;;;;;5094235;28;20107;-79
2022/10/31 00:26:07;;;;;;;9.18;3.97;;;13.50;99.90;;;;;;5093186;28;20028;-79
2022/10/31 00:28:33;;;;;;;8.18;4.05;;;13.50;99.90;;;;;;5077866;28;20095;-83
2022/10/31 00:31:04;;;;;;;9.93;3.58;;;13.50;99.90;;;;;;5107351;28;20376;-81
2022/10/31 00:33:30;;;;;;;6.55;3.65;;;13.40;99.90;;;;;;5087239;28;20027;-80
2022/10/31 00:35:56;;;;;;;10.88;4.07;;;13.40;99.90;;;;;;5096128;28;20050;-79
2022/10/31 00:38:22;;;;;;;6.90;3.65;;;13.30;99.90;;;;;;5114013;28;20480;-79
2022/10/31 00:40:48;;;;;;;7.80;3.17;;;13.30;99.90;;;;;;5096026;28;20027;-79
2022/10/31 00:43:13;;;;;;;11.23;3.83;;;13.20;99.90;;;;;;5113920;28;20020;-78
2022/10/31 00:45:40;;;;;;;8.55;3.33;;;13.20;99.90;;;;;;5102957;28;20520;-80
2022/10/31 00:48:06;;;;;;;9.75;3.50;;;13.10;99.90;;;;;;5091675;28;20472;-80
2022/10/31 00:50:31;;;;;;;6.53;3.70;;;13.10;99.90;;;;;;5091055;28;20016;-81
2022/10/31 00:52:57;;;;;;;7.35;3.78;;;13.00;99.90;;;;;;5106258;28;20085;-81
2022/10/31 00:55:23;;;;;;;7.65;3.55;;;13.10;99.90;;;;;;5085464;28;20043;-80
2022/10/31 00:57:49;;;;;;;9.52;3.70;;;13.10;99.90;;;;;;5095721;28;20092;-80
2022/10/31 01:00:15;;;;;;;10.13;3.63;;;13.00;99.90;;;;;;5096421;28;20059;-78
2022/10/31 01:02:40;;;;;;;7.13;3.53;;;13.00;99.90;;;;;;5089820;28;20028;-80
2022/10/31 01:05:06;;;;;;;9.57;3.75;;;13.00;99.90;;;;;;5101306;28;20088;-81
2022/10/31 01:07:35;;;;;;;9.30;3.47;;;12.90;99.90;;;;;;5082621;28;20035;-80
2022/10/31 01:10:00;;;;;;;6.82;3.35;;;12.90;99.90;;;;;;5091437;28;20089;-80
2022/10/31 01:12:26;;;;;;;9.43;3.45;;;12.90;99.90;;;;;;5109327;28;20032;-80
2022/10/31 01:14:51;;;;;;;5.20;3.50;;;12.80;99.90;;;;;;5081301;28;20030;-79
2022/10/31 01:17:17;;;;;;;8.93;4.05;;;12.90;99.90;;;;;;5084556;28;20035;-78
2022/10/31 01:19:43;;;;;;;7.10;3.35;;;12.80;99.90;;;;;;5088264;28;20030;-79
2022/10/31 01:22:08;;;;;;;8.60;3.13;;;12.80;99.90;;;;;;5077885;28;20464;-79
2022/10/31 01:24:34;;;;;;;7.50;3.25;;;12.70;99.90;;;;;;5090377;28;20038;-79
2022/10/31 01:26:59;;;;;;;8.18;3.30;;;12.70;99.90;;;;;;5082055;28;20024;-79
2022/10/31 01:29:25;;;;;;;8.07;3.60;;;12.70;99.90;;;;;;5050370;28;1085486;-79
2022/10/31 01:31:50;;;;;;;6.38;3.00;;;12.70;99.90;;;;;;5092364;28;20078;-79
2022/10/31 01:34:17;;;;;;;8.15;3.33;;;12.60;99.90;;;;;;5092965;28;20043;-77
2022/10/31 01:36:44;;;;;;;7.80;3.53;;;12.60;99.90;;;;;;5095327;28;20023;-79
2022/10/31 01:39:14;;;;;;;6.85;3.70;;;12.60;99.90;;;;;;5092137;28;20032;-80
2022/10/31 01:41:47;;;;;;;7.15;3.40;;;12.60;99.90;;;;;;5105794;28;20023;-79
2022/10/31 01:44:13;;;;;;;7.35;3.70;;;12.50;99.90;;;;;;5077330;28;20039;-77
2022/10/31 01:46:46;;;;;;;10.15;3.22;;;12.50;99.90;;;;;;5097164;28;20027;-79
2022/10/31 01:49:18;;;;;;;9.32;3.05;;;12.50;99.90;;;;;;5095591;28;20023;-78
2022/10/31 01:52:23;;;;;;;6.05;2.97;;;12.40;99.90;;;;;;5092083;28;20031;-80
2022/10/31 01:55:11;;;;;;;9.80;3.28;;;12.40;99.90;;;;;;5050280;28;20472;-80
2022/10/31 01:57:41;;;;;;;8.43;3.47;;;12.40;99.90;;;;;;5100161;28;20046;-80
2022/10/31 02:00:09;;;;;;;12.68;3.15;;;12.40;99.90;;;;;;5095029;28;20106;-79
2022/10/31 02:02:35;;;;;;;7.32;3.22;;;12.40;99.90;;;;;;5094458;28;20119;-79
2022/10/31 02:05:06;;;;;;;8.20;3.20;;;12.40;99.90;;;;;;5095006;28;20114;-79
2022/10/31 02:08:04;;;;;;;7.35;3.33;;;12.30;99.90;;;;;;5100897;28;20085;-80
2022/10/31 02:10:32;;;;;;;7.03;3.10;;;12.30;99.90;;;;;;5076587;28;20038;-80
2022/10/31 02:13:01;;;;;;;9.20;3.70;;;12.20;99.90;;;;;;5091726;28;20461;-80
2022/10/31 02:15:29;;;;;;;8.40;3.38;;;12.20;99.90;;;;;;5093358;28;20027;-80
2022/10/31 02:17:55;;;;;;;6.85;2.83;;;12.20;99.90;;;;;;5091534;28;20111;-79
2022/10/31 02:20:23;;;;;;;8.98;3.53;;;12.30;99.90;;;;;;5092362;28;20058;-79
2022/10/31 02:23:07;;;;;;;8.57;3.22;;;12.20;99.90;;;;;;5092813;28;20034;-80
2022/10/31 02:26:07;;;;;;;7.00;3.15;;;12.20;99.90;;;;;;5094357;28;20606;-80
2022/10/31 02:28:55;;;;;;;6.75;2.78;;;12.20;99.90;;;;;;5077609;28;20351;-80
2022/10/31 02:31:40;;;;;;;6.20;2.78;;;12.20;99.90;;;;;;5083951;28;20058;-81
2022/10/31 02:34:19;;;;;;;7.70;2.83;;;12.30;99.90;;;;;;5091665;28;20028;-82
2022/10/31 02:36:47;;;;;;;6.93;3.00;;;12.20;99.90;;;;;;5080012;28;20024;-81
2022/10/31 02:39:21;;;;;;;7.43;2.47;;;12.20;99.90;;;;;;5085640;28;20029;-78
2022/10/31 02:41:56;;;;;;;6.53;2.38;;;12.20;99.90;;;;;;5088926;28;20115;-81
2022/10/31 02:44:31;;;;;;;7.30;2.78;;;12.20;99.90;;;;;;5077418;28;20032;-81
2022/10/31 02:47:03;;;;;;;8.55;2.72;;;12.20;99.90;;;;;;5088041;28;20023;-81
2022/10/31 02:49:48;;;;;;;;;;;12.20;99.90;;;;;;5092536;28;20469;-81
2022/10/31 02:52:18;;;;;;;7.38;2.80;;;12.20;99.90;;;;;;5109894;28;19911;-77
2022/10/31 02:54:46;;;;;;;11.10;2.65;;;12.10;99.90;;;;;;5107176;28;20024;-79
2022/10/31 02:57:13;;;;;;;5.85;2.70;;;12.10;99.90;;;;;;5101525;28;20027;-79
2022/10/31 02:59:46;;;;;;;6.60;2.88;;;12.00;99.90;;;;;;5081039;28;20029;-80
2022/10/31 03:02:22;;;;;;;6.20;2.92;;;12.00;99.90;;;;;;5091917;28;20051;-79
2022/10/31 03:05:13;;;;;;;7.47;3.00;;;12.00;99.90;;;;;;5088958;28;20024;-80
2022/10/31 03:07:47;;;;;;;8.90;2.75;;;12.00;99.90;;;;;;5087427;28;20039;-80
2022/10/31 03:10:35;;;;;;;8.75;3.35;;;12.00;99.90;;;;;;5077546;28;20028;-77
2022/10/31 03:13:31;;;;;;;9.07;2.88;;;12.00;99.90;;;;;;5087050;28;20480;-80
2022/10/31 03:16:10;;;;;;;6.47;3.30;;;12.00;99.90;;;;;;5045970;28;20035;-78
2022/10/31 03:19:03;;;;;;;5.28;2.88;;;11.90;99.90;;;;;;5090166;28;20177;-78
2022/10/31 03:21:48;;;;;;;6.25;2.85;;;11.90;99.90;;;;;;5058722;28;20032;-78
2022/10/31 03:24:15;;;;;;;7.20;3.15;;;11.80;99.90;;;;;;5077084;28;20043;-79
2022/10/31 03:26:46;;;;;;;7.03;2.67;;;11.90;99.90;;;;;;5092165;28;20028;-81
2022/10/31 03:29:16;;;;;;;4.78;2.58;;;11.90;99.90;;;;;;5105061;28;20043;-81
2022/10/31 03:31:57;;;;;;;4.85;2.25;;;11.80;99.90;;;;;;5102313;28;20059;-81
2022/10/31 03:34:22;;;;;;;6.40;2.80;;;11.80;99.90;;;;;;5114065;28;20035;-81
2022/10/31 03:36:53;;;;;;;5.68;2.33;;;11.70;99.90;;;;;;5091649;28;20024;-81
2022/10/31 03:39:22;;;;;;;7.25;2.40;;;11.70;99.90;;;;;;5105088;28;20505;-78
2022/10/31 03:41:55;;;;;;;4.90;2.45;;;11.70;99.90;;;;;;5097920;28;20031;-80
2022/10/31 03:44:23;;;;;;;7.43;3.10;;;11.80;99.90;;;;;;5095279;28;20027;-81
2022/10/31 03:46:49;;;;;;;8.27;2.90;;;11.70;99.90;;;;;;5083637;28;20106;-80
2022/10/31 03:49:15;;;;;;;7.22;2.60;;;11.70;99.90;;;;;;5088113;28;20544;-77
2022/10/31 03:51:52;;;;;;;8.05;2.75;;;11.70;99.90;;;;;;5090649;28;20062;-81
2022/10/31 03:54:35;;;;;;;9.00;2.72;;;11.60;99.90;;;;;;5080534;28;20032;-79
2022/10/31 03:57:20;;;;;;;5.93;2.20;;;11.70;99.90;;;;;;5089831;28;20023;-78
2022/10/31 03:59:59;;;;;;;6.43;2.70;;;11.70;99.90;;;;;;5091207;28;20463;-79
2022/10/31 04:02:30;;;;;;;6.00;2.42;;;11.70;99.90;;;;;;5079953;28;20024;-78
2022/10/31 04:04:57;;;;;;;7.00;2.63;;;11.70;99.90;;;;;;5090143;28;20036;-78
2022/10/31 04:07:26;;;;;;;7.30;2.40;;;11.60;99.90;;;;;;5087011;28;20058;-79
2022/10/31 04:09:53;;;;;;;5.05;2.50;;;11.60;99.90;;;;;;5115805;28;20119;-78
2022/10/31 04:12:20;;;;;;;7.05;2.53;;;11.60;99.90;;;;;;5080063;28;20027;-79
2022/10/31 04:14:47;;;;;;;7.32;2.50;;;11.60;99.90;;;;;;5091763;28;20024;-79
2022/10/31 04:17:16;;;;;;;7.72;2.65;;;11.60;99.90;;;;;;5086331;28;20019;-76
2022/10/31 04:19:42;;;;;;;9.85;2.42;;;11.60;99.90;;;;;;5115210;28;20027;-79
2022/10/31 04:22:08;;;;;;;5.90;2.63;;;11.70;99.90;;;;;;5080053;28;20530;-78
2022/10/31 04:24:33;;;;;;;5.93;2.28;;;11.70;99.90;;;;;;5092270;28;20401;-79
2022/10/31 04:26:59;;;;;;;8.27;2.63;;;11.70;99.90;;;;;;5083701;28;20564;-79
2022/10/31 04:29:24;;;;;;;5.28;2.28;;;11.60;99.90;;;;;;5090156;28;20052;-79
2022/10/31 04:31:50;;;;;;;8.32;2.72;;;11.60;99.90;;;;;;5096803;28;20051;-79
2022/10/31 04:34:15;;;;;;;7.22;2.55;;;11.50;99.90;;;;;;5093745;28;20523;-77
2022/10/31 04:36:41;;;;;;;6.90;2.50;;;11.50;99.90;;;;;;5092567;28;20073;-79
2022/10/31 04:39:07;;;;;;;9.07;2.30;;;11.40;99.90;;;;;;5093087;28;20384;-79
2022/10/31 04:41:32;;;;;;;6.38;2.40;;;11.40;99.90;;;;;;5084003;28;20085;-79
2022/10/31 04:43:58;;;;;;;7.13;2.40;;;11.50;99.90;;;;;;5091887;28;20024;-79
2022/10/31 04:46:23;;;;;;;7.15;2.38;;;11.40;99.90;;;;;;5114087;28;20111;-79
2022/10/31 04:48:49;;;;;;;6.88;2.42;;;11.40;99.90;;;;;;5093359;28;20484;-78
2022/10/31 04:51:14;;;;;;;8.93;2.60;;;11.30;99.90;;;;;;5096227;28;20026;-76
2022/10/31 04:53:40;;;;;;;9.43;2.10;;;11.20;99.90;;;;;;5101160;28;20098;-79
2022/10/31 04:56:06;;;;;;;5.85;2.50;;;11.20;99.90;;;;;;5096208;28;20031;-79
2022/10/31 04:58:31;;;;;;;6.35;2.78;;;11.30;99.90;;;;;;5079162;28;20015;-79
2022/10/31 05:00:57;;;;;;;6.28;2.33;;;11.20;99.90;;;;;;5093078;28;20027;-80
2022/10/31 05:03:23;;;;;;;6.38;2.45;;;11.30;99.90;;;;;;5092603;28;20024;-79
2022/10/31 05:05:48;;;;;;;6.72;2.25;;;11.40;99.90;;;;;;5096413;28;20043;-79
2022/10/31 05:08:15;;;;;;;6.10;2.78;;;11.40;99.90;;;;;;5093627;28;20032;-77
2022/10/31 05:10:40;;;;;;;7.63;3.35;;;11.40;99.90;;;;;;5096032;28;20026;-79
2022/10/31 05:13:06;;;;;;;3.65;2.42;;;11.50;99.90;;;;;;5093142;28;20031;-79
2022/10/31 05:15:32;;;;;;;6.43;2.53;;;11.50;99.90;;;;;;5095663;28;20027;-80
2022/10/31 05:17:58;;;;;;;5.35;2.60;;;11.50;99.90;;;;;;5098523;28;20031;-79
2022/10/31 05:20:26;;;;;;;5.53;2.60;;;11.60;99.90;;;;;;5094490;28;20028;-79
2022/10/31 05:22:54;;;;;;;5.07;2.58;;;11.70;99.90;;;;;;5107766;28;20016;-79
2022/10/31 05:25:21;;;;;;;8.30;3.13;;;11.70;99.90;;;;;;5095222;28;20027;-79
2022/10/31 05:27:49;;;;;;;7.05;2.80;;;11.70;99.90;;;;;;5099994;28;20063;-79
2022/10/31 05:30:17;;;;;;;4.82;2.67;;;11.50;99.90;;;;;;5092074;28;20048;-77
2022/10/31 05:32:44;;;;;;;13.48;3.10;;;11.60;99.90;;;;;;5087537;28;20016;-80
2022/10/31 05:35:13;;;;;;;8.77;3.13;;;11.60;99.90;;;;;;5081266;28;20059;-80
2022/10/31 05:37:38;;;;;;;10.52;2.40;;;11.60;99.90;;;;;;5078946;28;20036;-80
2022/10/31 05:40:06;;;;;;;6.43;2.92;;;11.60;99.90;;;;;;5089830;28;20026;-81
2022/10/31 05:42:31;;;;;;;5.03;2.38;;;11.60;99.90;;;;;;5087832;28;20423;-80
2022/10/31 05:44:57;;;;;;;6.45;2.80;;;11.60;99.90;;;;;;5079292;28;20032;-80
2022/10/31 05:47:23;;;;;;;4.60;2.60;;;11.60;99.90;;;;;;5091674;28;20024;-80
2022/10/31 05:49:49;;;;;;;6.28;2.88;;;11.70;99.90;;;;;;5092020;28;20028;-79
2022/10/31 05:52:14;;;;;;;5.13;2.53;;;11.60;99.90;;;;;;5074019;28;20039;-76
2022/10/31 05:54:40;;;;;;;4.93;2.60;;;11.60;99.90;;;;;;5077641;28;20042;-80
2022/10/31 05:57:06;;;;;;;5.93;2.50;;;11.60;99.90;;;;;;5083903;28;20021;-80
2022/10/31 05:59:31;;;;;;;5.13;2.65;;;11.60;99.90;;;;;;5083202;28;20032;-80
2022/10/31 06:01:57;;;;;;;4.13;2.63;;;11.60;99.90;;;;;;5076657;28;20020;-79
2022/10/31 06:04:22;;;;;;;6.93;2.90;;;11.60;99.90;;;;;;5071304;28;20031;-80
2022/10/31 06:06:48;;;;;;;6.75;2.60;;;11.50;99.90;;;;;;5077372;28;20436;-80
2022/10/31 06:09:14;;;;;;;5.35;2.72;;;11.50;99.90;;;;;;5082060;28;20029;-79
2022/10/31 06:11:39;;;;;;;6.03;2.95;;;11.50;99.90;;;;;;5085834;28;20512;-80
2022/10/31 06:14:06;;;;;;;6.05;2.78;;;11.50;99.90;;;;;;5076076;28;20073;-81
2022/10/31 06:16:31;;;;;;;7.95;2.60;;;11.50;99.90;;;;;;5071412;28;20017;-80
2022/10/31 06:18:57;;;;;;;5.60;2.20;;;11.50;99.90;;;;;;5079825;28;20035;-81
2022/10/31 06:21:22;;;;;;;6.13;3.20;;;11.50;99.90;;;;;;5080652;28;20385;-80
2022/10/31 06:23:48;;;;;;;8.27;2.90;;;11.60;99.90;;;;;;5086785;28;20024;-81
2022/10/31 06:26:14;;;;;;;5.13;2.25;;;11.60;99.90;;;;;;5090548;28;20039;-77
2022/10/31 06:28:39;;;;;;;5.63;2.85;;;11.60;99.90;;;;;;5077564;28;20036;-81
2022/10/31 06:31:05;;;;;;;7.50;2.78;;;11.60;99.90;;;;;;5105134;28;20024;-81
2022/10/31 06:33:31;;;;;;;6.22;2.90;;;11.60;99.90;;;;;;5086124;28;20106;-79
2022/10/31 06:35:57;;;;;;;5.32;2.88;;;11.60;99.90;;;;;;5112687;28;20110;-79
2022/10/31 06:38:22;;;;;;;6.72;2.83;;;11.60;99.90;;;;;;5093309;28;20032;-79
2022/10/31 06:40:48;;;;;;;7.68;2.90;;;11.70;99.90;;;;;;5080348;28;20387;-79
2022/10/31 06:43:14;;;;;;;6.10;2.80;;;11.70;99.90;;;;;;5103512;28;20036;-76
2022/10/31 06:45:40;;;;;;;4.65;2.95;;;11.70;99.90;;;;;;5074148;28;20032;-79
2022/10/31 06:48:06;;;;;;;5.70;2.72;;;11.80;99.90;;;;;;5091175;28;20447;-79
2022/10/31 06:50:31;;;;;;;6.35;2.65;;;11.80;99.90;;;;;;5094199;28;20123;-79
2022/10/31 06:52:58;;;;;;;5.50;2.55;;;11.80;99.90;;;;;;5094548;28;20024;-79
2022/10/31 06:55:25;;;;;;;5.45;3.15;;;11.80;99.90;;;;;;5094147;28;20027;-79
2022/10/31 06:57:58;;;;;;;5.07;2.63;;;11.70;99.90;;;;;;5092502;28;20019;-78
2022/10/31 07:00:26;;;;;;;7.60;3.10;;;11.70;99.90;;;;;;5095310;28;20027;-79
2022/10/31 07:02:56;;;;;;;10.13;3.38;;;11.80;99.90;;;;;;5099206;28;20031;-80
2022/10/31 07:05:22;;;;;;;6.28;2.70;;;11.80;99.90;;;;;;5098194;28;20038;-79
2022/10/31 07:07:51;;;;;;;12.48;3.22;;;11.80;99.90;;;;;;5098653;28;20384;-79
2022/10/31 07:10:16;;;;;;;5.70;3.17;;;11.80;99.90;;;;;;5098449;28;20035;-77
2022/10/31 07:12:42;;;;;;;6.57;3.00;;;11.90;99.90;;;;;;5116623;28;20024;-80
2022/10/31 07:15:08;;;;;;;6.35;3.00;;;11.90;99.90;;;;;;5099093;28;20034;-79
2022/10/31 07:17:33;;;;;;;8.18;3.30;;;11.90;99.90;;;;;;5097809;28;20497;-79
2022/10/31 07:19:59;;;;;;;5.32;3.13;;;12.00;99.90;;;;;;5098956;28;20032;-80
2022/10/31 07:22:25;;;;;;;8.30;3.22;;;12.00;99.90;;;;;;5098282;28;20460;-79
2022/10/31 07:24:50;;;;;;;6.15;3.00;;;12.00;99.90;;;;;;5098805;28;20094;-80
2022/10/31 07:27:16;;;;;;;7.55;3.10;;;12.00;99.90;;;;;;5098535;28;20059;-76
2022/10/31 07:29:41;;;;;;;5.05;2.88;;;12.00;99.90;;;;;;5097859;28;20408;-79
2022/10/31 07:32:07;;;;;;;7.32;3.25;;;12.00;99.90;;;;;;5098668;28;20028;-80
2022/10/31 07:34:32;;;;;;;9.35;3.15;;;12.10;99.90;;;;;;5097913;28;20031;-79
2022/10/31 07:36:58;;;;;;;10.32;3.80;;;12.10;99.90;;;;;;5098176;28;20448;-80
2022/10/31 07:39:24;;;;;;;9.07;3.30;;;12.20;99.90;;;;;;5097718;28;20035;-80
2022/10/31 07:41:49;;;;;;;6.07;3.08;;;12.20;99.90;;;;;;5098424;28;20474;-80
2022/10/31 07:44:15;;;;;;;6.38;3.55;;;12.20;99.90;;;;;;5098568;28;20456;-81
2022/10/31 07:46:40;;;;;;;5.70;3.47;;;12.20;99.90;;;;;;5116133;28;20032;-81
2022/10/31 07:49:06;;;;;;;8.43;3.92;;;12.20;99.90;;;;;;5116363;28;20080;-80
2022/10/31 07:51:32;;;;;;;7.65;3.50;;;12.30;99.90;;;;;;5115574;28;20022;-80
2022/10/31 07:53:57;;;;;;;9.88;4.15;;;12.30;99.90;;;;;;5098184;28;20118;-80
2022/10/31 07:56:23;;;;;;;6.05;3.45;;;12.40;99.90;;;;;;5097409;28;20046;-80
2022/10/31 07:58:49;;;;;;;8.60;3.97;;;12.40;99.90;;;;;;5116189;28;20517;-81
2022/10/31 08:01:14;;;;;;;6.97;3.30;;;12.40;99.90;;;;;;5098130;28;20156;-80
2022/10/31 08:03:40;;;;;;;5.93;3.45;;;12.50;99.90;;;;;;5097398;28;20681;-79
2022/10/31 08:06:05;;;;;;;5.85;2.92;;;12.50;99.90;;;;;;5097729;28;20084;-80
2022/10/31 08:08:32;;;;;;;8.43;3.10;;;12.60;99.90;;;;;;5097150;28;20353;-79
2022/10/31 08:10:58;;;;;;;4.47;3.00;;;12.60;99.90;;;;;;5115856;28;20019;-79
2022/10/31 08:13:24;;;;;;;10.73;3.40;;;12.70;99.90;;;;;;5096807;28;20426;-78
2022/10/31 08:15:51;;;;;;;7.50;3.15;;;12.70;99.90;;;;;;5097692;28;20118;-79
2022/10/31 08:18:17;;;;;;;5.55;3.10;;;12.80;99.90;;;;;;5086265;28;20673;-78
2022/10/31 08:20:43;;;;;;;5.50;3.13;;;12.80;99.90;;;;;;5098084;28;20032;-79
2022/10/31 08:23:10;;;;;;;7.07;2.92;;;12.90;99.90;;;;;;5115207;28;20456;-79
2022/10/31 08:25:36;;;;;;;6.82;3.40;;;13.00;99.90;;;;;;5089324;28;20381;-79
2022/10/31 08:28:03;;;;;;;8.10;3.03;;;13.00;99.90;;;;;;5090099;28;20034;-81
2022/10/31 08:30:30;;;;;;;8.52;3.35;;;13.00;99.90;;;;;;5085302;28;20550;-80
2022/10/31 08:33:13;;;;;;;6.43;2.88;;;13.10;99.90;;;;;;5095319;28;20437;-79
2022/10/31 08:35:39;;;;;;;6.38;2.97;;;13.20;99.90;;;;;;5096167;28;20035;-79
2022/10/31 08:38:05;;;;;;;6.57;2.97;;;13.20;99.90;;;;;;5085599;28;20035;-79
2022/10/31 08:40:32;;;;;;;7.78;3.53;;;13.30;99.90;;;;;;5108498;28;20100;-79
2022/10/31 08:43:11;;;;;;;5.45;2.85;;;13.30;99.90;;;;;;5079861;28;20024;-79
2022/10/31 08:45:37;;;;;;;7.97;3.28;;;13.40;99.90;;;;;;5088572;28;20118;-79
2022/10/31 08:48:06;;;;;;;8.55;3.17;;;13.40;99.90;;;;;;5082988;28;20054;-79
2022/10/31 08:50:35;;;;;;;8.07;3.78;;;13.40;99.90;;;;;;5095679;28;20119;-79
2022/10/31 08:53:11;;;;;;;5.63;3.00;;;13.50;99.90;;;;;;5077542;28;20024;-79
2022/10/31 08:55:38;;;;;;;9.82;3.45;;;13.50;99.90;;;;;;5082950;28;20122;-80
2022/10/31 08:58:06;;;;;;;9.93;3.13;;;13.60;99.90;;;;;;5085278;28;20028;-79
2022/10/31 09:00:33;;;;;;;10.38;3.60;;;13.70;99.90;;;;;;5108386;28;20058;-82
2022/10/31 09:03:01;;;;;;;8.65;3.17;;;13.70;99.90;;;;;;5094718;28;20024;-83
2022/10/31 09:05:28;;;;;;;6.97;3.40;;;13.70;99.90;;;;;;5075356;28;20044;-82
2022/10/31 09:07:58;;;;;;;6.15;2.80;;;13.80;99.90;;;;;;5075569;28;20488;-81
2022/10/31 09:10:25;;;;;;;8.68;3.30;;;13.90;99.90;;;;;;5096068;28;20028;-76
2022/10/31 09:12:59;;;;;;;8.18;3.70;;;14.00;99.90;;;;;;5095356;28;20126;-80
2022/10/31 09:15:25;;;;;;;7.70;2.80;;;14.00;99.90;;;;;;5075575;28;20096;-77
2022/10/31 09:17:51;;;;;;;4.22;2.75;;;14.10;99.90;;;;;;5079400;28;20028;-79
2022/10/31 09:20:16;;;;;;;4.90;2.90;;;14.20;99.90;;;;;;5084104;28;20477;-80
2022/10/31 09:22:42;;;;;;;6.30;3.08;;;14.20;99.90;;;;;;5097167;28;20066;-81
2022/10/31 09:25:09;;;;;;;6.90;2.50;;;14.20;99.90;;;;;;5096652;28;20028;-80
2022/10/31 09:27:34;;;;;;;6.25;3.47;;;14.30;99.90;;;;;;5113444;28;20031;-81
2022/10/31 09:30:00;;;;;;;5.72;3.15;;;14.30;99.90;;;;;;5095949;28;20047;-80
2022/10/31 09:32:25;;;;;;;6.30;3.17;;;14.30;99.90;;;;;;5095155;28;20051;-80
2022/10/31 09:34:51;;;;;;;7.20;3.78;;;14.30;99.90;;;;;;5094995;28;20084;-80
2022/10/31 09:37:16;;;;;;;6.25;3.13;;;14.40;99.90;;;;;;5080392;28;20028;-80
2022/10/31 09:39:42;;;;;;;7.82;3.05;;;14.40;99.90;;;;;;5095398;28;20031;-80
2022/10/31 09:42:32;;;;;;;6.15;3.03;;;14.40;99.90;;;;;;5113419;28;20024;-79
2022/10/31 09:45:15;;;;;;;7.22;3.17;;;14.50;99.90;;;;;;5113660;28;20031;-79
2022/10/31 09:47:46;;;;;;;6.82;3.25;;;14.50;99.90;;;;;;5087092;28;20385;-82
2022/10/31 09:50:21;;;;;;;7.88;3.00;;;14.50;99.90;;;;;;5087502;28;20506;-79
2022/10/31 09:53:00;;;;;;;6.07;2.90;;;14.60;99.90;;;;;;5094751;28;20027;-80
2022/10/31 09:55:36;;;;;;;7.25;3.42;;;14.60;99.90;;;;;;5112904;28;20084;-77
2022/10/31 09:58:03;;;;;;;10.88;3.42;;;14.60;99.90;;;;;;5094732;28;20034;-80
2022/10/31 10:00:29;;;;;;;5.38;2.78;;;14.60;99.90;;;;;;5083818;28;20034;-83
2022/10/31 10:03:17;;;;;;;6.32;2.83;;;14.70;99.90;;;;;;5113445;28;20015;-83
2022/10/31 10:06:01;;;;;;;6.63;3.47;;;14.70;99.90;;;;;;5094511;28;20043;-80
2022/10/31 10:08:30;;;;;;;5.68;2.92;;;14.70;99.90;;;;;;5095010;28;20054;-79
2022/10/31 10:11:14;;;;;;;6.13;3.28;;;14.70;99.90;;;;;;5111810;28;20023;-80
2022/10/31 10:14:15;;;;;;;5.80;3.13;;;14.80;99.90;;;;;;5082104;28;20020;-81
2022/10/31 10:16:53;;;;;;;5.43;3.10;;;14.90;99.90;;;;;;5078500;28;20354;-82
2022/10/31 10:19:38;;;;;;;8.50;3.45;;;15.00;99.90;;;;;;5097810;28;20308;-81
2022/10/31 10:22:43;;;;;;;5.18;2.90;;;15.00;99.90;;;;;;5095746;28;20026;-83
2022/10/31 10:25:34;;;;;;;5.30;2.92;;;15.00;99.90;;;;;;5096293;28;20020;-81
2022/10/31 10:28:18;;;;;;;4.53;2.40;;;15.00;99.90;;;;;;5085203;28;20038;-82
2022/10/31 10:30:49;;;;;;;6.30;2.90;;;15.00;99.90;;;;;;5108685;28;20429;-80
2022/10/31 10:33:30;;;;;;;4.68;2.45;;;15.10;99.90;;;;;;5082228;28;20020;-82
2022/10/31 10:36:00;;;;;;;6.93;2.80;;;15.10;99.90;;;;;;5096571;28;20040;-79
2022/10/31 10:38:37;;;;;;;7.18;3.35;;;15.10;99.90;;;;;;5095744;28;20031;-78
2022/10/31 10:41:11;;;;;;;9.93;2.90;;;15.10;99.90;;;;;;5115754;28;20526;-82
2022/10/31 10:43:38;;;;;;;6.80;3.20;;;15.20;99.90;;;;;;5094362;28;20476;-85
2022/10/31 10:49:22;;;;;;;7.20;2.92;;;15.30;99.90;;;;;;5115787;28;20104;-83
2022/10/31 10:51:55;;;;;;;8.30;3.17;;;15.40;99.90;;;;;;5090009;28;20041;-80
2022/10/31 10:54:37;;;;;;;30.20;16.95;;;15.50;99.90;;;;;;5093251;28;20108;-81
2022/10/31 10:57:21;;;;;;;13.20;5.40;;;15.50;99.90;;;;;;5093346;28;20023;-84
2022/10/31 10:59:47;;;;;;;8.65;3.95;;;15.60;99.90;;;;;;5084273;28;20115;-81
2022/10/31 11:02:24;;;;;;;8.50;3.78;;;15.60;99.90;;;;;;5098627;28;20503;-87
2022/10/31 11:04:53;;;;;;;6.63;3.38;;;15.70;99.90;;;;;;5102770;28;20027;-83
2022/10/31 11:07:19;;;;;;;9.57;2.97;;;15.80;99.90;;;;;;5079859;28;20031;-83
2022/10/31 11:09:46;;;;;;;6.47;3.20;;;15.80;99.90;;;;;;5093599;28;20563;-84
2022/10/31 11:12:26;;;;;;;6.70;3.13;;;15.80;99.90;;;;;;5096711;28;20473;-85
2022/10/31 11:14:59;;;;;;;7.00;3.20;;;15.90;99.90;;;;;;5078301;28;20032;-83
2022/10/31 11:17:30;;;;;;;6.72;3.30;;;15.90;99.90;;;;;;5092965;28;20032;-81
2022/10/31 11:20:13;;;;;;;7.95;3.20;;;16.00;99.90;;;;;;5098511;28;20031;-81
2022/10/31 11:22:41;;;;;;;8.82;3.95;;;16.10;99.90;;;;;;5083323;28;20032;-80
2022/10/31 11:25:19;;;;;;;7.05;3.65;;;16.10;99.90;;;;;;5083375;28;20032;-81
2022/10/31 11:27:46;;;;;;;5.60;3.30;;;16.10;99.90;;;;;;5090674;28;20186;-82
2022/10/31 11:30:15;;;;;;;9.75;3.65;;;16.20;99.90;;;;;;5109392;28;20381;-77
2022/10/31 11:32:50;;;;;;;10.65;3.35;;;16.20;99.90;;;;;;5096689;28;20027;-90
2022/10/31 11:35:18;;;;;;;6.60;3.88;;;16.20;99.90;;;;;;5095051;28;20446;-91
2022/10/31 11:37:45;;;;;;;8.75;3.75;;;16.20;99.90;;;;;;5077710;28;20084;-91
2022/10/31 11:40:23;;;;;;;8.18;3.80;;;16.20;99.90;;;;;;5099964;28;20024;-84
2022/10/31 11:42:51;;;;;;;10.48;3.53;;;16.30;99.90;;;;;;5089679;28;20016;-85
2022/10/31 11:45:22;;;;;;;6.25;2.85;;;16.30;99.90;;;;;;5093134;28;20456;-84
2022/10/31 11:47:49;;;;;;;;;;;16.30;99.90;;;;;;5088617;28;20028;-85
2022/10/31 11:50:29;;;;;;;10.05;3.40;;;16.30;99.90;;;;;;5092900;28;19903;-85
2022/10/31 11:52:55;;;;;;;5.55;3.47;;;16.40;99.90;;;;;;5112571;28;20034;-91
2022/10/31 11:55:36;;;;;;;7.40;3.70;;;16.40;99.90;;;;;;5094330;28;20028;-86
2022/10/31 11:58:03;;;;;;;7.85;3.15;;;16.50;99.90;;;;;;5090381;28;20024;-86
2022/10/31 12:00:33;;;;;;;8.38;3.85;;;16.50;99.90;;;;;;5080338;28;20028;-82
2022/10/31 12:03:16;;;;;;;7.75;3.53;;;16.50;99.90;;;;;;5092731;28;20027;-80
2022/10/31 12:05:44;;;;;;;8.18;4.13;;;16.50;99.90;;;;;;5107351;28;20043;-79
2022/10/31 12:08:12;;;;;;;8.88;3.72;;;16.50;99.90;;;;;;5090318;28;20122;-78
2022/10/31 12:10:55;;;;;;;5.95;3.42;;;16.50;99.90;;;;;;5083872;28;20067;-81
2022/10/31 12:13:32;;;;;;;7.55;3.30;;;16.50;99.90;;;;;;5080851;28;20544;-81
2022/10/31 12:16:24;;;;;;;6.22;2.80;;;16.40;99.90;;;;;;5106761;28;20449;-81
2022/10/31 12:19:09;;;;;;;8.07;2.92;;;16.50;99.90;;;;;;5045160;28;20032;-80
2022/10/31 12:21:45;;;;;;;6.63;3.35;;;16.50;99.90;;;;;;5103756;28;20055;-80
2022/10/31 12:24:35;;;;;;;6.78;3.10;;;16.50;99.90;;;;;;5095965;28;20023;-83
2022/10/31 12:27:16;;;;;;;6.50;3.40;;;16.60;99.90;;;;;;5090220;28;20056;-82
2022/10/31 12:30:10;;;;;;;8.18;3.30;;;16.70;99.90;;;;;;5091702;28;20134;-81
2022/10/31 12:32:50;;;;;;;4.72;3.30;;;16.80;99.90;;;;;;5089988;28;20540;-85
2022/10/31 12:36:01;;;;;;;7.07;3.30;;;16.90;99.90;;;;;;5091246;28;20032;-82
2022/10/31 12:38:51;;;;;;;7.65;3.70;;;16.90;99.90;;;;;;5045109;28;20477;-77
2022/10/31 12:41:45;;;;;;;6.82;3.22;;;16.90;99.90;;;;;;5091813;28;20031;-83
2022/10/31 12:44:35;;;;;;;6.82;3.47;;;16.80;99.90;;;;;;5074109;28;21421;-81
2022/10/31 12:47:27;;;;;;;9.18;3.60;;;16.80;99.90;;;;;;5084249;28;20074;-82
2022/10/31 12:49:58;;;;;;;7.85;3.70;;;16.80;99.90;;;;;;5081413;28;20500;-81
2022/10/31 12:52:58;;;;;;;12.68;4.20;;;16.70;99.90;;;;;;5076183;28;20021;-82
2022/10/31 12:55:48;;;;;;;7.75;3.97;;;16.60;99.90;;;;;;5080179;28;20032;-82
2022/10/31 12:58:24;;;;;;;8.45;3.65;;;16.70;99.90;;;;;;5076978;28;20043;-81
2022/10/31 13:01:07;;;;;;;6.63;3.70;;;16.80;99.90;;;;;;5072870;28;20100;-82
2022/10/31 13:03:44;;;;;;;6.40;3.55;;;17.90;99.90;;;;;;5082720;28;20024;-82
2022/10/31 13:06:13;;;;;;;7.45;3.38;;;19.10;99.90;;;;;;5086311;28;20126;-81
2022/10/31 13:08:52;;;;;;;4.50;3.08;;;20.40;99.90;;;;;;5092632;28;20111;-82